createdAt,value
2018-11-07T00:00:01.527Z,13.90
2018-11-07T00:02:30.883Z,13.90
2018-11-07T00:04:59.751Z,13.90
2018-11-07T00:07:29.569Z,13.90
2018-11-07T00:09:58.274Z,13.90
2018-11-07T00:12:27.402Z,13.90
2018-11-07T00:14:57.548Z,13.90
2018-11-07T00:17:26.113Z,13.90
2018-11-07T00:19:54.886Z,13.90
2018-11-07T00:22:23.350Z,13.90
2018-11-07T00:24:53.069Z,13.80
2018-11-07T00:27:21.958Z,13.90
2018-11-07T00:29:50.460Z,13.80
2018-11-07T00:32:19.201Z,13.90
2018-11-07T00:34:48.196Z,13.80
2018-11-07T00:37:17.083Z,13.80
2018-11-07T00:39:45.824Z,13.80
2018-11-07T00:42:14.530Z,13.70
2018-11-07T00:44:43.404Z,13.70
2018-11-07T00:47:12.070Z,13.70
2018-11-07T00:49:41.014Z,13.70
2018-11-07T00:52:09.775Z,13.60
2018-11-07T00:54:38.545Z,13.60
2018-11-07T00:57:07.873Z,13.60
2018-11-07T00:59:36.756Z,13.50
2018-11-07T01:02:05.378Z,13.50
2018-11-07T01:04:33.930Z,13.50
2018-11-07T01:07:03.056Z,13.40
2018-11-07T01:09:32.157Z,13.40
2018-11-07T01:12:00.613Z,13.40
2018-11-07T01:14:29.359Z,13.30
2018-11-07T01:16:57.951Z,13.30
2018-11-07T01:19:26.632Z,13.30
2018-11-07T01:21:55.209Z,13.20
2018-11-07T01:24:23.775Z,13.20
2018-11-07T01:26:52.313Z,13.20
2018-11-07T01:29:21.065Z,13.20
2018-11-07T01:31:49.616Z,13.10
2018-11-07T01:34:18.295Z,13.10
2018-11-07T01:36:46.983Z,13.10
2018-11-07T01:39:15.667Z,13.10
2018-11-07T01:41:44.353Z,13.00
2018-11-07T01:44:12.890Z,13.00
2018-11-07T01:46:41.451Z,12.90
2018-11-07T01:49:10.204Z,12.90
2018-11-07T01:51:38.774Z,12.90
2018-11-07T01:54:07.326Z,12.80
2018-11-07T01:56:35.826Z,12.80
2018-11-07T01:59:04.467Z,12.70
2018-11-07T02:01:33.037Z,12.70
2018-11-07T02:04:01.684Z,12.60
2018-11-07T02:06:30.202Z,12.60
2018-11-07T02:08:58.797Z,12.60
2018-11-07T02:11:27.436Z,12.50
2018-11-07T02:13:55.919Z,12.50
2018-11-07T02:16:24.294Z,12.50
2018-11-07T02:18:52.886Z,12.50
2018-11-07T02:21:21.578Z,12.50
2018-11-07T02:23:50.232Z,12.50
2018-11-07T02:26:18.795Z,12.50
2018-11-07T02:28:47.366Z,12.50
2018-11-07T02:31:16.064Z,12.50
2018-11-07T02:33:44.747Z,12.50
2018-11-07T02:36:13.418Z,12.50
2018-11-07T02:38:42.020Z,12.60
2018-11-07T02:41:10.717Z,12.50
2018-11-07T02:43:39.307Z,12.50
2018-11-07T02:46:08.252Z,12.50
2018-11-07T02:48:36.695Z,12.50
2018-11-07T02:51:05.249Z,12.50
2018-11-07T02:53:33.815Z,12.50
2018-11-07T02:56:02.517Z,12.40
2018-11-07T02:58:30.949Z,12.50
2018-11-07T03:00:59.484Z,12.50
2018-11-07T03:03:27.991Z,12.50
2018-11-07T03:05:56.441Z,12.40
2018-11-07T03:08:24.907Z,12.40
2018-11-07T03:10:53.594Z,12.30
2018-11-07T03:13:22.178Z,12.30
2018-11-07T03:15:50.705Z,12.30
2018-11-07T03:18:19.482Z,12.30
2018-11-07T03:20:48.234Z,12.30
2018-11-07T03:23:16.953Z,12.30
2018-11-07T03:25:45.463Z,12.30
2018-11-07T03:28:13.923Z,12.20
2018-11-07T03:30:42.383Z,12.20
2018-11-07T03:33:11.055Z,12.20
2018-11-07T03:35:39.696Z,12.20
2018-11-07T03:38:08.661Z,12.10
2018-11-07T03:40:37.986Z,12.00
2018-11-07T03:43:06.789Z,12.00
2018-11-07T03:45:40.560Z,12.00
2018-11-07T03:48:09.223Z,11.90
2018-11-07T03:50:37.751Z,11.80
2018-11-07T03:53:06.600Z,11.80
2018-11-07T03:55:34.973Z,11.80
2018-11-07T03:58:03.428Z,11.80
2018-11-07T04:00:31.965Z,11.80
2018-11-07T04:03:00.609Z,11.80
2018-11-07T04:05:29.034Z,11.70
2018-11-07T04:07:57.688Z,11.70
2018-11-07T04:10:26.206Z,11.70
2018-11-07T04:12:54.813Z,11.70
2018-11-07T04:15:23.276Z,11.70
2018-11-07T04:17:51.831Z,11.70
2018-11-07T04:20:20.336Z,11.70
2018-11-07T04:22:48.939Z,12.60
2018-11-07T04:25:17.445Z,11.60
2018-11-07T04:27:45.864Z,11.60
2018-11-07T04:30:14.389Z,11.60
2018-11-07T04:32:43.154Z,11.50
2018-11-07T04:35:12.453Z,11.50
2018-11-07T04:37:41.811Z,11.50
2018-11-07T04:40:11.872Z,11.50
2018-11-07T04:42:40.530Z,11.50
2018-11-07T04:45:09.181Z,11.50
2018-11-07T04:47:37.711Z,11.40
2018-11-07T04:50:07.615Z,11.40
2018-11-07T04:52:36.107Z,11.40
2018-11-07T04:55:04.934Z,11.30
2018-11-07T04:57:33.876Z,11.30
2018-11-07T05:00:02.499Z,11.30
2018-11-07T05:02:31.720Z,11.30
2018-11-07T05:05:00.215Z,11.30
2018-11-07T05:07:29.178Z,11.20
2018-11-07T05:09:57.776Z,11.20
2018-11-07T05:12:26.401Z,11.20
2018-11-07T05:14:55.208Z,11.10
2018-11-07T05:17:23.844Z,11.10
2018-11-07T05:19:53.202Z,11.10
2018-11-07T05:22:21.975Z,11.10
2018-11-07T05:24:50.972Z,11.10
2018-11-07T05:27:19.617Z,11.00
2018-11-07T05:29:48.476Z,11.00
2018-11-07T05:32:17.321Z,11.00
2018-11-07T05:34:46.024Z,11.00
2018-11-07T05:37:15.192Z,11.00
2018-11-07T05:39:43.779Z,11.00
2018-11-07T05:42:12.525Z,11.00
2018-11-07T05:44:41.242Z,11.00
2018-11-07T05:47:09.970Z,11.00
2018-11-07T05:49:38.705Z,11.00
2018-11-07T05:52:07.472Z,11.00
2018-11-07T05:54:36.567Z,11.00
2018-11-07T05:57:05.474Z,11.00
2018-11-07T05:59:34.362Z,10.90
2018-11-07T06:02:03.045Z,11.00
2018-11-07T06:04:31.993Z,11.00
2018-11-07T06:07:00.746Z,11.00
2018-11-07T06:09:29.605Z,11.00
2018-11-07T06:11:58.929Z,11.00
2018-11-07T06:14:30.673Z,11.00
2018-11-07T06:16:59.959Z,11.00
2018-11-07T06:19:28.649Z,11.80
2018-11-07T06:21:57.905Z,11.00
2018-11-07T06:24:27.353Z,11.00
2018-11-07T06:26:56.559Z,11.10
2018-11-07T06:29:25.614Z,11.10
2018-11-07T06:31:54.347Z,11.10
2018-11-07T06:34:24.628Z,11.10
2018-11-07T06:36:53.652Z,11.10
2018-11-07T06:39:22.269Z,11.10
2018-11-07T06:41:51.808Z,11.10
2018-11-07T06:44:21.915Z,11.10
2018-11-07T06:46:51.740Z,11.10
2018-11-07T06:49:22.740Z,11.10
2018-11-07T06:51:51.532Z,11.20
2018-11-07T06:54:20.087Z,11.30
2018-11-07T06:56:48.754Z,11.30
2018-11-07T06:59:17.433Z,11.30
2018-11-07T07:01:46.080Z,11.30
2018-11-07T07:04:14.547Z,11.20
2018-11-07T07:06:43.133Z,11.30
2018-11-07T07:09:12.162Z,11.30
2018-11-07T07:11:40.975Z,11.30
2018-11-07T07:14:10.106Z,11.30
2018-11-07T07:16:38.492Z,11.30
2018-11-07T07:19:07.236Z,11.40
2018-11-07T07:21:36.493Z,11.40
2018-11-07T07:24:04.988Z,11.40
2018-11-07T07:26:33.404Z,11.40
2018-11-07T07:29:02.064Z,11.40
2018-11-07T07:31:30.562Z,11.40
2018-11-07T07:33:59.845Z,11.10
2018-11-07T07:36:28.684Z,11.50
2018-11-07T07:38:57.241Z,11.60
2018-11-07T07:41:25.946Z,11.60
2018-11-07T07:43:54.501Z,11.60
2018-11-07T07:46:24.751Z,11.70
2018-11-07T07:48:53.406Z,11.70
2018-11-07T07:51:22.087Z,11.70
2018-11-07T07:53:50.781Z,11.80
2018-11-07T07:56:19.752Z,11.80
2018-11-07T07:58:48.353Z,11.80
2018-11-07T08:01:16.932Z,11.90
2018-11-07T08:03:46.143Z,12.00
2018-11-07T08:06:14.965Z,12.10
2018-11-07T08:08:43.499Z,12.10
2018-11-07T08:11:12.181Z,12.10
2018-11-07T08:13:41.258Z,12.20
2018-11-07T08:16:10.064Z,12.20
2018-11-07T08:18:38.640Z,12.30
2018-11-07T08:21:07.679Z,12.40
2018-11-07T08:23:36.320Z,12.50
2018-11-07T08:26:05.006Z,12.60
2018-11-07T08:28:34.596Z,12.70
2018-11-07T08:31:03.212Z,12.70
2018-11-07T08:33:31.776Z,12.80
2018-11-07T08:36:00.237Z,12.80
2018-11-07T08:38:29.148Z,12.80
2018-11-07T08:40:58.026Z,12.90
2018-11-07T08:43:27.240Z,13.00
2018-11-07T08:45:56.199Z,13.30
2018-11-07T08:48:25.596Z,13.20
2018-11-07T08:50:54.536Z,13.30
2018-11-07T08:53:23.136Z,13.40
2018-11-07T08:55:52.003Z,13.50
2018-11-07T08:58:21.059Z,13.60
2018-11-07T09:00:50.068Z,13.60
2018-11-07T09:03:19.483Z,13.60
2018-11-07T09:05:48.235Z,13.70
2018-11-07T09:08:17.005Z,13.70
2018-11-07T09:10:45.911Z,13.70
2018-11-07T09:13:14.428Z,13.70
2018-11-07T09:15:43.422Z,13.70
2018-11-07T09:18:12.229Z,13.80
2018-11-07T09:20:41.626Z,13.80
2018-11-07T09:23:10.553Z,13.80
2018-11-07T09:25:39.544Z,13.90
2018-11-07T09:28:08.925Z,14.00
2018-11-07T09:30:37.534Z,14.10
2018-11-07T09:33:06.540Z,15.50
2018-11-07T09:35:35.012Z,14.40
2018-11-07T09:38:03.963Z,14.60
2018-11-07T09:40:32.417Z,14.60
2018-11-07T09:43:01.044Z,14.60
2018-11-07T09:45:29.914Z,14.60
2018-11-07T09:47:58.709Z,14.60
2018-11-07T09:50:27.493Z,14.70
2018-11-07T09:52:58.093Z,14.80
2018-11-07T09:55:28.696Z,14.80
2018-11-07T09:57:58.324Z,14.90
2018-11-07T10:00:27.715Z,14.90
2018-11-07T10:02:56.307Z,14.80
2018-11-07T10:05:25.003Z,14.60
2018-11-07T10:07:54.082Z,14.50
2018-11-07T10:10:23.076Z,14.30
2018-11-07T10:12:52.031Z,14.20
2018-11-07T10:15:21.492Z,14.10
2018-11-07T10:17:50.305Z,14.00
2018-11-07T10:20:20.612Z,13.90
2018-11-07T10:22:49.910Z,14.00
2018-11-07T10:25:18.715Z,14.00
2018-11-07T10:27:48.144Z,13.90
2018-11-07T10:30:18.736Z,13.90
2018-11-07T10:32:48.329Z,13.80
2018-11-07T10:35:17.582Z,13.80
2018-11-07T10:37:45.982Z,13.70
2018-11-07T10:40:19.746Z,13.70
2018-11-07T10:42:48.443Z,13.70
2018-11-07T10:45:16.944Z,13.70
2018-11-07T10:47:46.596Z,13.70
2018-11-07T10:50:18.092Z,13.70
2018-11-07T10:52:47.380Z,13.70
2018-11-07T10:55:17.052Z,13.70
2018-11-07T10:57:46.107Z,13.70
2018-11-07T11:02:26.165Z,13.70
2018-11-07T11:04:54.972Z,13.70
2018-11-07T11:07:23.564Z,13.60
2018-11-07T11:09:52.696Z,13.60
2018-11-07T11:12:21.244Z,13.70
2018-11-07T11:14:49.894Z,13.60
2018-11-07T11:17:18.457Z,13.60
2018-11-07T11:19:47.672Z,13.60
2018-11-07T11:22:16.523Z,13.60
2018-11-07T11:24:45.322Z,13.50
2018-11-07T11:27:14.205Z,13.60
2018-11-07T11:29:42.735Z,13.60
2018-11-07T11:32:11.811Z,13.60
2018-11-07T11:34:40.975Z,13.70
2018-11-07T11:37:19.405Z,13.80
2018-11-07T11:39:48.733Z,13.90
2018-11-07T11:42:17.964Z,13.90
2018-11-07T11:44:46.791Z,14.00
2018-11-07T11:47:15.638Z,14.00
2018-11-07T11:49:44.160Z,14.00
2018-11-07T11:52:13.220Z,14.10
2018-11-07T11:54:42.219Z,14.00
2018-11-07T11:57:11.068Z,14.00
2018-11-07T11:59:40.679Z,14.00
2018-11-07T12:02:09.253Z,14.00
2018-11-07T12:04:38.570Z,14.00
2018-11-07T12:07:07.447Z,13.90
2018-11-07T12:09:36.597Z,13.90
2018-11-07T12:12:05.891Z,13.90
2018-11-07T12:14:35.298Z,13.80
2018-11-07T12:17:04.542Z,13.80
2018-11-07T12:19:33.098Z,13.90
2018-11-07T12:22:02.212Z,13.90
2018-11-07T12:24:30.792Z,14.00
2018-11-07T12:26:59.778Z,13.90
2018-11-07T12:29:28.479Z,13.80
2018-11-07T12:31:57.565Z,13.70
2018-11-07T12:34:26.461Z,13.50
2018-11-07T12:36:55.252Z,13.30
2018-11-07T12:39:24.120Z,13.20
2018-11-07T12:41:53.007Z,13.00
2018-11-07T12:44:22.114Z,12.90
2018-11-07T12:46:50.668Z,13.00
2018-11-07T12:49:19.674Z,13.00
2018-11-07T12:51:49.137Z,12.90
2018-11-07T12:54:18.593Z,12.80
2018-11-07T12:56:47.895Z,12.80
2018-11-07T12:59:16.542Z,12.80
2018-11-07T13:01:45.457Z,12.70
2018-11-07T13:04:14.251Z,12.70
2018-11-07T13:06:42.905Z,12.70
2018-11-07T13:09:12.315Z,12.70
2018-11-07T13:11:41.788Z,12.70
2018-11-07T13:14:11.049Z,12.70
2018-11-07T13:16:39.870Z,12.60
2018-11-07T13:19:08.557Z,12.60
2018-11-07T13:21:37.638Z,12.60
2018-11-07T13:24:06.790Z,12.50
2018-11-07T13:26:36.941Z,12.60
2018-11-07T13:29:06.800Z,12.50
2018-11-07T13:31:36.450Z,12.60
2018-11-07T13:34:06.975Z,12.60
2018-11-07T13:36:37.007Z,12.70
2018-11-07T13:39:08.962Z,12.60
2018-11-07T13:41:50.935Z,12.60
2018-11-07T13:44:20.278Z,12.60
2018-11-07T13:46:49.324Z,12.60
2018-11-07T13:49:18.111Z,12.60
2018-11-07T13:51:47.077Z,12.60
2018-11-07T13:54:16.202Z,12.60
2018-11-07T13:56:45.150Z,12.60
2018-11-07T13:59:14.063Z,12.60
2018-11-07T14:01:43.176Z,12.60
2018-11-07T14:04:12.204Z,12.60
2018-11-07T14:06:41.676Z,12.60
2018-11-07T14:09:12.460Z,12.60
2018-11-07T14:11:41.750Z,12.60
2018-11-07T14:14:10.694Z,12.50
2018-11-07T14:16:40.235Z,12.50
2018-11-07T14:19:09.646Z,12.50
2018-11-07T14:21:38.540Z,12.50
2018-11-07T14:24:07.714Z,12.60
2018-11-07T14:26:36.722Z,12.50
2018-11-07T14:29:05.604Z,12.50
2018-11-07T14:31:34.693Z,12.60
2018-11-07T14:34:04.407Z,12.60
2018-11-07T14:36:33.470Z,12.60
2018-11-07T14:39:02.749Z,12.70
2018-11-07T14:41:31.946Z,12.70
2018-11-07T14:44:01.396Z,12.70
2018-11-07T14:46:30.660Z,12.80
2018-11-07T14:48:59.894Z,12.80
2018-11-07T14:51:28.510Z,12.70
2018-11-07T14:53:57.797Z,12.70
2018-11-07T14:56:27.085Z,12.70
2018-11-07T14:58:55.883Z,12.70
2018-11-07T15:01:24.771Z,12.70
2018-11-07T15:03:54.187Z,12.80
2018-11-07T15:06:24.036Z,12.80
2018-11-07T15:08:53.070Z,12.80
2018-11-07T15:11:21.825Z,12.70
2018-11-07T15:13:50.515Z,12.80
2018-11-07T15:16:19.218Z,12.70
2018-11-07T15:18:48.382Z,12.70
2018-11-07T15:21:17.862Z,12.70
2018-11-07T15:23:46.764Z,12.70
2018-11-07T15:26:15.436Z,12.70
2018-11-07T15:28:44.491Z,12.80
2018-11-07T15:31:13.104Z,12.70
2018-11-07T15:33:41.840Z,12.70
2018-11-07T15:36:11.085Z,12.70
2018-11-07T15:38:40.513Z,12.70
2018-11-07T15:41:10.887Z,12.70
2018-11-07T15:43:40.995Z,12.70
2018-11-07T15:46:09.834Z,12.70
2018-11-07T15:48:38.832Z,12.70
2018-11-07T15:51:14.285Z,12.70
2018-11-07T15:53:44.608Z,12.70
2018-11-07T15:56:13.305Z,12.70
2018-11-07T15:58:41.976Z,12.70
2018-11-07T16:01:11.310Z,12.70
2018-11-07T16:03:46.482Z,12.70
2018-11-07T16:06:16.166Z,12.70
2018-11-07T16:08:46.277Z,12.70
2018-11-07T16:11:16.690Z,12.70
2018-11-07T16:13:46.233Z,12.70
2018-11-07T16:16:16.352Z,12.60
2018-11-07T16:18:46.361Z,12.60
2018-11-07T16:21:16.294Z,12.70
2018-11-07T16:23:46.090Z,12.60
2018-11-07T16:26:15.066Z,12.60
2018-11-07T16:28:44.770Z,12.60
2018-11-07T16:31:14.076Z,12.60
2018-11-07T16:33:43.027Z,12.60
2018-11-07T16:36:12.140Z,12.60
2018-11-07T16:38:43.222Z,12.70
2018-11-07T16:41:13.998Z,12.60
2018-11-07T16:43:43.673Z,12.60
2018-11-07T16:46:12.817Z,12.70
2018-11-07T16:48:42.138Z,12.60
2018-11-07T16:51:12.632Z,12.70
2018-11-07T16:53:42.628Z,12.70
2018-11-07T16:56:15.533Z,12.70
2018-11-07T16:58:44.711Z,12.70
2018-11-07T17:01:15.303Z,12.70
2018-11-07T17:03:44.385Z,12.60
2018-11-07T17:06:13.430Z,12.60
2018-11-07T17:08:43.355Z,12.60
2018-11-07T17:11:12.873Z,12.60
2018-11-07T17:13:41.699Z,12.50
2018-11-07T17:16:10.930Z,12.50
2018-11-07T17:18:40.503Z,12.50
2018-11-07T17:21:09.388Z,12.50
2018-11-07T17:23:38.858Z,12.50
2018-11-07T17:26:08.132Z,12.50
2018-11-07T17:28:37.148Z,12.50
2018-11-07T17:31:07.682Z,12.50
2018-11-07T17:33:36.351Z,12.50
2018-11-07T17:36:05.414Z,12.50
2018-11-07T17:38:40.729Z,12.40
2018-11-07T17:41:10.317Z,12.40
2018-11-07T17:43:39.032Z,12.40
2018-11-07T17:46:09.099Z,12.40
2018-11-07T17:48:38.243Z,12.40
2018-11-07T17:51:07.611Z,12.40
2018-11-07T17:53:36.502Z,12.40
2018-11-07T17:56:06.209Z,12.30
2018-11-07T17:58:35.115Z,12.30
2018-11-07T18:01:04.103Z,12.30
2018-11-07T18:03:32.847Z,12.30
2018-11-07T18:06:01.639Z,12.40
2018-11-07T18:08:31.089Z,12.30
2018-11-07T18:11:00.206Z,12.30
2018-11-07T18:13:29.388Z,12.30
2018-11-07T18:15:58.564Z,12.30
2018-11-07T18:18:27.380Z,12.30
2018-11-07T18:20:56.081Z,12.40
2018-11-07T18:23:25.464Z,12.30
2018-11-07T18:25:54.569Z,12.30
2018-11-07T18:28:23.394Z,12.40
2018-11-07T18:30:52.215Z,12.40
2018-11-07T18:33:21.377Z,12.40
2018-11-07T18:35:50.411Z,12.40
2018-11-07T18:38:19.237Z,12.40
2018-11-07T18:40:47.963Z,12.40
2018-11-07T18:43:16.471Z,12.40
2018-11-07T18:45:44.965Z,12.40
2018-11-07T18:48:13.395Z,12.40
2018-11-07T18:50:41.961Z,12.40
2018-11-07T18:53:10.502Z,12.40
2018-11-07T18:55:38.844Z,12.40
2018-11-07T18:58:07.837Z,12.40
2018-11-07T19:00:36.552Z,12.40
2018-11-07T19:03:05.177Z,12.40
2018-11-07T19:05:33.591Z,12.40
2018-11-07T19:08:02.025Z,12.30
2018-11-07T19:10:30.399Z,12.30
2018-11-07T19:12:58.750Z,12.30
2018-11-07T19:15:27.178Z,12.30
2018-11-07T19:17:55.671Z,12.20
2018-11-07T19:20:24.073Z,12.20
2018-11-07T19:22:52.561Z,12.20
2018-11-07T19:25:21.553Z,12.20
2018-11-07T19:27:50.012Z,12.20
2018-11-07T19:30:19.479Z,12.20
2018-11-07T19:32:48.745Z,12.20
2018-11-07T19:35:18.081Z,12.10
2018-11-07T19:37:46.926Z,12.10
2018-11-07T19:40:19.867Z,12.10
2018-11-07T19:42:48.605Z,12.10
2018-11-07T19:45:18.061Z,12.10
2018-11-07T19:47:46.449Z,12.10
2018-11-07T19:50:16.528Z,12.00
2018-11-07T19:52:45.452Z,12.00
2018-11-07T19:55:16.112Z,12.00
2018-11-07T19:57:54.534Z,12.00
2018-11-07T20:00:23.133Z,12.00
2018-11-07T20:02:51.788Z,11.90
2018-11-07T20:05:20.302Z,11.90
2018-11-07T20:07:49.184Z,11.90
2018-11-07T20:10:19.711Z,11.90
2018-11-07T20:12:48.002Z,11.90
2018-11-07T20:15:17.629Z,11.90
2018-11-07T20:17:46.014Z,11.90
2018-11-07T20:20:14.816Z,11.90
2018-11-07T20:22:43.575Z,11.90
2018-11-07T20:25:12.829Z,11.90
2018-11-07T20:27:41.560Z,11.90
2018-11-07T20:30:11.608Z,11.80
2018-11-07T20:32:40.163Z,11.80
2018-11-07T20:35:10.235Z,11.80
2018-11-07T20:37:38.606Z,11.80
2018-11-07T20:40:09.439Z,11.80
2018-11-07T20:42:37.987Z,11.80
2018-11-07T20:45:06.969Z,11.80
2018-11-07T20:47:35.758Z,11.80
2018-11-07T20:50:07.334Z,11.70
2018-11-07T20:52:36.494Z,11.70
2018-11-07T20:55:04.961Z,11.70
2018-11-07T20:57:35.876Z,11.70
2018-11-07T21:00:07.344Z,11.70
2018-11-07T21:02:36.092Z,11.70
2018-11-07T21:05:05.048Z,11.70
2018-11-07T21:07:33.616Z,11.70
2018-11-07T21:10:03.166Z,11.70
2018-11-07T21:12:31.558Z,11.70
2018-11-07T21:14:59.953Z,11.70
2018-11-07T21:17:28.293Z,11.70
2018-11-07T21:19:56.637Z,11.60
2018-11-07T21:22:25.015Z,11.60
2018-11-07T21:24:53.422Z,11.60
2018-11-07T21:27:21.706Z,11.60
2018-11-07T21:29:50.012Z,11.60
2018-11-07T21:32:18.379Z,11.50
2018-11-07T21:34:46.952Z,11.50
2018-11-07T21:37:15.282Z,11.50
2018-11-07T21:39:43.601Z,11.50
2018-11-07T21:42:12.150Z,11.50
2018-11-07T21:44:40.778Z,11.40
2018-11-07T21:47:10.109Z,11.40
2018-11-07T21:49:38.801Z,11.40
2018-11-07T21:52:07.362Z,11.40
2018-11-07T21:54:35.723Z,11.40
2018-11-07T21:57:04.114Z,11.40
2018-11-07T21:59:32.454Z,11.40
2018-11-07T22:02:00.871Z,11.30
2018-11-07T22:04:29.345Z,11.30
2018-11-07T22:06:58.066Z,11.30
2018-11-07T22:09:26.393Z,11.30
2018-11-07T22:11:54.638Z,11.30
2018-11-07T22:14:23.093Z,11.30
2018-11-07T22:16:51.408Z,11.30
2018-11-07T22:19:19.807Z,11.30
2018-11-07T22:21:48.194Z,11.30
2018-11-07T22:24:16.560Z,12.10
2018-11-07T22:26:45.131Z,11.30
2018-11-07T22:29:13.447Z,11.30
2018-11-07T22:31:41.832Z,11.30
2018-11-07T22:34:10.608Z,11.30
2018-11-07T22:36:39.017Z,11.30
2018-11-07T22:39:09.632Z,11.30
2018-11-07T22:41:37.979Z,11.30
2018-11-07T22:44:07.010Z,11.30
2018-11-07T22:46:35.604Z,11.20
2018-11-07T22:49:04.838Z,11.20
2018-11-07T22:51:33.304Z,11.20
2018-11-07T22:54:03.392Z,11.20
2018-11-07T22:56:31.999Z,11.20
2018-11-07T22:59:00.994Z,11.10
2018-11-07T23:01:35.103Z,11.20
2018-11-07T23:04:04.308Z,11.20
2018-11-07T23:06:32.922Z,11.20
2018-11-07T23:09:01.630Z,11.20
2018-11-07T23:11:30.087Z,11.20
2018-11-07T23:13:58.737Z,11.10
2018-11-07T23:16:27.908Z,11.20
2018-11-07T23:18:56.377Z,11.10
2018-11-07T23:21:24.897Z,11.10
2018-11-07T23:23:53.551Z,11.10
2018-11-07T23:26:30.884Z,11.10
2018-11-07T23:28:59.812Z,11.10
2018-11-07T23:31:28.829Z,11.10
2018-11-07T23:34:37.784Z,11.10
2018-11-07T23:37:44.797Z,11.00
2018-11-07T23:40:29.034Z,11.00
2018-11-07T23:42:57.560Z,11.00
2018-11-07T23:45:26.465Z,11.00
2018-11-07T23:47:55.085Z,11.00
2018-11-07T23:50:23.710Z,11.00
2018-11-07T23:52:53.152Z,11.00
2018-11-07T23:55:22.660Z,10.90
2018-11-07T23:57:58.798Z,11.00
